Terminal Aerodrome Forecast
Issued by NWS Blacksburg, VA

Current Version | Previous Version | Graphics & Text | Print | Product List | Glossary On
Versions: 1 2 3 4 5 6 7 8 9 10 11 12 13 14 15 16 17 18
000
FTUS41 KRNK 231739
TAFBLF
TAF
KBLF 231739Z 2318/2418 14013KT 2SM RA BR SCT012 OVC020
      WS020/15040KT
     FM240000 17011KT 1SM +SHRA OVC040 WS020/24035KT
     FM240200 21009KT 3SM SHRA OVC050
     FM240400 24009KT P6SM SCT015 BKN050
     FM240900 23006KT P6SM SCT010
     FM241200 23006KT P6SM FEW250=

USA.gov is the U.S. government's official web portal to all federal, state and local government web resources and services.